createdAt,value
2022-11-21T00:00:46.951Z,70.54
2022-11-21T00:03:14.180Z,70.39
2022-11-21T00:05:42.448Z,70.14
2022-11-21T00:08:10.109Z,70.21
2022-11-21T00:10:37.772Z,70.59
2022-11-21T00:13:05.622Z,70.42
2022-11-21T00:15:33.295Z,70.29
2022-11-21T00:18:02.541Z,70.14
2022-11-21T00:20:29.179Z,70.13
2022-11-21T00:22:55.834Z,70.17
2022-11-21T00:25:22.902Z,70.08
2022-11-21T00:27:49.548Z,70.28
2022-11-21T00:30:16.287Z,69.99
2022-11-21T00:32:42.928Z,70.25
2022-11-21T00:35:09.674Z,70.32
2022-11-21T00:37:36.308Z,70.10
2022-11-21T00:40:03.220Z,70.23
2022-11-21T00:42:29.773Z,70.49
2022-11-21T00:44:56.464Z,70.07
2022-11-21T00:47:23.078Z,70.51
2022-11-21T00:49:49.742Z,70.04
2022-11-21T00:52:17.467Z,70.03
2022-11-21T00:54:44.388Z,70.43
2022-11-21T00:57:11.332Z,70.56
2022-11-21T00:59:37.983Z,70.28
2022-11-21T01:02:05.574Z,70.18
2022-11-21T01:04:33.926Z,70.22
2022-11-21T01:07:00.820Z,70.24
2022-11-21T01:09:28.852Z,70.07
2022-11-21T01:11:56.291Z,70.37
2022-11-21T01:14:23.037Z,70.35
2022-11-21T01:16:49.797Z,71.28
2022-11-21T01:19:16.582Z,70.70
2022-11-21T01:21:43.362Z,71.53
2022-11-21T01:24:11.874Z,72.69
2022-11-21T01:26:41.548Z,71.58
2022-11-21T01:29:09.013Z,71.37
2022-11-21T01:31:36.220Z,71.96
2022-11-21T01:34:03.027Z,71.31
2022-11-21T01:36:31.639Z,72.06
2022-11-21T01:39:00.577Z,72.40
2022-11-21T01:41:33.817Z,72.54
2022-11-21T01:44:01.923Z,72.08
2022-11-21T01:46:28.911Z,71.43
2022-11-21T01:48:58.401Z,71.80
2022-11-21T01:51:32.290Z,71.45
2022-11-21T01:54:03.412Z,72.16
2022-11-21T01:56:32.671Z,71.61
2022-11-21T01:59:01.342Z,71.72
2022-11-21T02:01:28.741Z,72.07
2022-11-21T02:03:56.079Z,72.00
2022-11-21T02:06:23.688Z,71.37
2022-11-21T02:08:50.666Z,71.37
2022-11-21T02:11:27.362Z,71.21
2022-11-21T02:13:54.716Z,71.21
2022-11-21T02:16:21.823Z,70.71
2022-11-21T02:18:48.441Z,71.08
2022-11-21T02:21:26.023Z,70.80
2022-11-21T02:24:12.540Z,70.64
2022-11-21T02:26:39.368Z,70.96
2022-11-21T02:29:06.060Z,71.44
2022-11-21T02:31:32.800Z,71.06
2022-11-21T02:33:59.466Z,70.98
2022-11-21T02:36:38.422Z,70.77
2022-11-21T02:39:11.910Z,70.73
2022-11-21T02:41:51.270Z,70.59
2022-11-21T02:44:48.441Z,70.37
2022-11-21T02:47:15.069Z,70.05
2022-11-21T02:49:48.939Z,70.25
2022-11-21T02:52:15.860Z,70.43
2022-11-21T02:54:42.568Z,70.44
2022-11-21T02:57:09.153Z,70.52
2022-11-21T02:59:35.883Z,70.42
2022-11-21T03:02:02.794Z,70.42
2022-11-21T03:04:29.682Z,70.45
2022-11-21T03:06:59.859Z,70.46
2022-11-21T03:09:26.658Z,70.23
2022-11-21T03:11:53.349Z,70.01
2022-11-21T03:14:20.031Z,70.38
2022-11-21T03:16:46.670Z,70.30
2022-11-21T03:19:13.337Z,70.79
2022-11-21T03:21:40.100Z,70.39
2022-11-21T03:24:09.870Z,70.90
2022-11-21T03:26:36.515Z,70.61
2022-11-21T03:29:03.225Z,70.90
2022-11-21T03:31:29.861Z,70.76
2022-11-21T03:33:56.510Z,70.53
2022-11-21T03:36:23.161Z,70.11
2022-11-21T03:38:49.972Z,70.96
2022-11-21T03:41:31.913Z,70.71
2022-11-21T03:44:03.967Z,70.37
2022-11-21T03:46:32.887Z,70.63
2022-11-21T03:48:59.946Z,71.09
2022-11-21T03:51:27.118Z,71.23
2022-11-21T03:53:53.852Z,70.70
2022-11-21T03:56:20.584Z,70.59
2022-11-21T03:58:47.638Z,70.81
2022-11-21T04:01:15.233Z,70.17
2022-11-21T04:03:45.572Z,70.24
2022-11-21T04:06:14.124Z,69.78
2022-11-21T04:08:40.785Z,69.99
2022-11-21T04:11:07.858Z,70.40
2022-11-21T04:13:34.709Z,70.56
2022-11-21T04:16:01.460Z,70.27
2022-11-21T04:18:28.052Z,69.88
2022-11-21T04:20:58.492Z,69.82
2022-11-21T04:23:25.843Z,70.02
2022-11-21T04:25:52.924Z,70.26
2022-11-21T04:28:19.983Z,70.15
2022-11-21T04:30:52.466Z,70.46
2022-11-21T04:33:21.486Z,69.88
2022-11-21T04:35:48.402Z,70.43
2022-11-21T04:38:18.096Z,70.48
2022-11-21T04:40:45.632Z,70.67
2022-11-21T04:43:12.332Z,70.30
2022-11-21T04:45:39.241Z,70.72
2022-11-21T04:48:06.157Z,71.01
2022-11-21T04:50:33.315Z,70.68
2022-11-21T04:53:00.087Z,70.91
2022-11-21T04:55:30.286Z,70.87
2022-11-21T04:57:57.048Z,71.00
2022-11-21T05:00:24.616Z,71.42
2022-11-21T05:02:51.788Z,70.99
2022-11-21T05:05:18.696Z,70.95
2022-11-21T05:07:45.328Z,71.34
2022-11-21T05:10:12.163Z,71.28
2022-11-21T05:12:57.654Z,71.57
2022-11-21T05:15:26.498Z,72.07
2022-11-21T05:17:53.191Z,71.75
2022-11-21T05:20:19.887Z,72.34
2022-11-21T05:22:51.833Z,72.15
2022-11-21T05:25:18.552Z,71.95
2022-11-21T05:27:45.287Z,71.72
2022-11-21T05:30:15.156Z,71.74
2022-11-21T05:32:43.596Z,71.99
2022-11-21T05:35:10.358Z,72.32
2022-11-21T05:37:37.044Z,72.50
2022-11-21T05:40:03.959Z,72.43
2022-11-21T05:42:49.287Z,72.04
2022-11-21T05:45:16.269Z,72.92
2022-11-21T05:47:42.941Z,74.57
2022-11-21T05:50:09.747Z,75.10
2022-11-21T05:52:36.384Z,73.70
2022-11-21T05:55:03.175Z,73.50
2022-11-21T05:57:31.136Z,73.77
2022-11-21T06:00:00.792Z,73.26
2022-11-21T06:02:46.228Z,74.03
2022-11-21T06:05:12.990Z,74.12
2022-11-21T06:07:39.687Z,74.06
2022-11-21T06:10:06.656Z,73.40
2022-11-21T06:12:33.379Z,73.38
2022-11-21T06:15:00.137Z,73.12
2022-11-21T06:17:26.969Z,74.03
2022-11-21T06:19:53.671Z,72.92
2022-11-21T06:22:20.428Z,73.19
2022-11-21T06:24:47.119Z,73.70
2022-11-21T06:27:13.716Z,73.28
2022-11-21T06:29:40.387Z,72.69
2022-11-21T06:32:06.996Z,72.84
2022-11-21T06:34:33.751Z,72.45
2022-11-21T06:37:00.822Z,73.02
2022-11-21T06:39:27.506Z,72.62
2022-11-21T06:41:54.215Z,72.53
2022-11-21T06:44:20.954Z,72.24
2022-11-21T06:46:51.167Z,72.14
2022-11-21T06:49:18.249Z,72.43
2022-11-21T06:51:44.891Z,72.68
2022-11-21T06:54:16.336Z,72.95
2022-11-21T06:56:43.966Z,72.86
2022-11-21T06:59:10.986Z,72.96
2022-11-21T07:01:37.731Z,73.50
2022-11-21T07:04:04.586Z,74.55
2022-11-21T07:06:31.265Z,74.26
2022-11-21T07:09:31.135Z,73.85
2022-11-21T07:11:44.591Z,73.93
2022-11-21T07:14:11.285Z,74.55
2022-11-21T07:16:38.203Z,74.52
2022-11-21T07:19:05.058Z,74.24
2022-11-21T07:21:31.677Z,74.67
2022-11-21T07:23:58.625Z,75.51
2022-11-21T07:26:25.228Z,74.53
2022-11-21T07:28:55.010Z,74.01
2022-11-21T07:31:21.725Z,74.53
2022-11-21T07:33:48.415Z,76.18
2022-11-21T07:36:15.115Z,75.26
2022-11-21T07:38:42.243Z,75.96
2022-11-21T07:41:09.703Z,76.32
2022-11-21T07:43:36.450Z,77.34
2022-11-21T07:46:03.141Z,77.64
2022-11-21T07:48:29.806Z,77.47
2022-11-21T07:50:59.342Z,77.59
2022-11-21T07:53:25.981Z,77.18
2022-11-21T07:55:52.717Z,76.02
2022-11-21T07:58:19.612Z,75.56
2022-11-21T08:00:46.283Z,76.28
2022-11-21T08:03:13.535Z,76.64
2022-11-21T08:05:42.070Z,76.79
2022-11-21T08:08:09.971Z,75.95
2022-11-21T08:10:43.286Z,76.11
2022-11-21T08:13:10.636Z,76.16
2022-11-21T08:15:37.745Z,75.21
2022-11-21T08:18:12.513Z,76.01
2022-11-21T08:20:39.589Z,76.17
2022-11-21T08:23:06.873Z,77.09
2022-11-21T08:25:34.915Z,76.93
2022-11-21T08:28:02.902Z,76.83
2022-11-21T08:30:29.943Z,76.77
2022-11-21T08:32:58.787Z,77.14
2022-11-21T08:35:26.572Z,78.05
2022-11-21T08:38:00.130Z,77.58
2022-11-21T08:40:28.420Z,77.20
2022-11-21T08:43:21.401Z,75.80
2022-11-21T08:45:48.056Z,75.54
2022-11-21T08:48:14.713Z,76.10
2022-11-21T08:50:41.376Z,77.16
2022-11-21T08:53:08.076Z,75.55
2022-11-21T08:55:34.803Z,76.54
2022-11-21T08:58:01.496Z,76.58
2022-11-21T09:00:28.393Z,75.66
2022-11-21T09:02:55.274Z,76.56
2022-11-21T09:05:22.396Z,77.49
2022-11-21T09:07:49.213Z,77.70
2022-11-21T09:10:16.229Z,78.25
2022-11-21T09:12:43.389Z,77.09
2022-11-21T09:15:29.841Z,76.18
2022-11-21T09:18:03.511Z,76.30
2022-11-21T09:20:34.852Z,76.49
2022-11-21T09:23:13.337Z,75.73
2022-11-21T09:25:40.105Z,75.33
2022-11-21T09:28:09.002Z,75.70
2022-11-21T09:30:36.066Z,75.00
2022-11-21T09:33:06.870Z,74.65
2022-11-21T09:35:33.850Z,74.07
2022-11-21T09:38:00.649Z,73.63
2022-11-21T09:40:29.542Z,73.50
2022-11-21T09:42:59.143Z,75.01
2022-11-21T09:45:42.296Z,75.65
2022-11-21T09:48:16.113Z,75.78
2022-11-21T09:50:53.805Z,77.02
2022-11-21T09:53:27.715Z,77.09
2022-11-21T09:56:11.688Z,77.26
2022-11-21T09:58:49.065Z,77.02
2022-11-21T10:01:16.937Z,75.86
2022-11-21T10:03:48.854Z,74.91
2022-11-21T10:06:27.105Z,74.68
2022-11-21T10:09:00.802Z,75.19
2022-11-21T10:12:20.875Z,74.86
2022-11-21T10:15:07.781Z,74.90
2022-11-21T10:17:41.911Z,75.39
2022-11-21T10:20:40.484Z,75.27
2022-11-21T10:23:42.668Z,74.44
2022-11-21T10:26:17.276Z,74.97
2022-11-21T10:28:59.680Z,75.67
2022-11-21T10:31:27.259Z,75.61
2022-11-21T10:33:54.587Z,74.73
2022-11-21T10:36:47.443Z,74.26
2022-11-21T10:39:19.417Z,74.99
2022-11-21T10:41:59.203Z,74.32
2022-11-21T10:44:48.806Z,73.74
2022-11-21T10:47:27.848Z,73.27
2022-11-21T10:50:06.476Z,73.28
2022-11-21T10:53:01.942Z,72.97
2022-11-21T10:55:28.680Z,72.57
2022-11-21T10:57:55.474Z,74.02
2022-11-21T11:00:24.771Z,74.26
2022-11-21T11:02:57.856Z,75.86
2022-11-21T11:05:38.057Z,75.00
2022-11-21T11:08:12.693Z,75.44
2022-11-21T11:10:44.340Z,74.93
2022-11-21T11:13:50.650Z,74.08
2022-11-21T11:16:21.339Z,74.20
2022-11-21T11:18:57.426Z,74.91
2022-11-21T11:21:44.322Z,74.70
2022-11-21T11:24:10.880Z,74.09
2022-11-21T11:26:49.785Z,75.58
2022-11-21T11:29:21.781Z,75.52
2022-11-21T11:31:57.646Z,75.43
2022-11-21T11:34:27.748Z,75.13
2022-11-21T11:36:55.692Z,75.75
2022-11-21T11:39:37.559Z,75.14
2022-11-21T11:42:34.189Z,74.02
2022-11-21T11:45:22.580Z,75.33
2022-11-21T11:48:13.978Z,76.75
2022-11-21T11:50:48.459Z,76.64
2022-11-21T11:53:23.854Z,75.60
2022-11-21T11:56:02.693Z,74.81
2022-11-21T11:58:53.417Z,74.93
2022-11-21T12:01:39.671Z,75.11
2022-11-21T12:04:13.001Z,74.49
2022-11-21T12:08:05.945Z,74.78
2022-11-21T12:10:01.908Z,73.70
2022-11-21T12:12:35.817Z,73.03
2022-11-21T12:15:45.381Z,75.08
2022-11-21T12:18:21.035Z,75.73
2022-11-21T12:21:02.876Z,74.82
2022-11-21T12:23:41.209Z,74.97
2022-11-21T12:26:40.384Z,75.12
2022-11-21T12:29:10.404Z,75.08
2022-11-21T12:31:44.444Z,75.73
2022-11-21T12:34:51.765Z,74.50
2022-11-21T12:37:50.202Z,74.70
2022-11-21T12:40:41.583Z,74.18
2022-11-21T12:43:18.714Z,73.46
2022-11-21T12:46:02.317Z,72.54
2022-11-21T12:49:12.918Z,72.03
2022-11-21T12:52:36.697Z,71.72
2022-11-21T12:55:12.159Z,71.62
2022-11-21T12:57:56.735Z,72.10
2022-11-21T13:00:49.066Z,71.11
2022-11-21T13:03:42.421Z,71.23
2022-11-21T13:06:19.719Z,71.27
2022-11-21T13:08:48.716Z,70.75
2022-11-21T13:11:47.363Z,70.25
2022-11-21T13:14:32.849Z,70.70
2022-11-21T13:17:11.117Z,71.50
2022-11-21T13:19:43.267Z,70.55
2022-11-21T13:22:36.304Z,70.12
2022-11-21T13:25:09.125Z,70.81
2022-11-21T13:27:39.157Z,70.71
2022-11-21T13:30:09.655Z,70.82
2022-11-21T13:32:44.721Z,70.45
2022-11-21T13:35:14.979Z,70.62
2022-11-21T13:38:01.313Z,69.73
2022-11-21T13:40:39.016Z,68.57
2022-11-21T13:43:31.348Z,67.97
2022-11-21T13:45:56.725Z,67.78
2022-11-21T13:48:34.790Z,68.09
2022-11-21T13:51:33.014Z,69.18
2022-11-21T13:54:17.979Z,69.91
2022-11-21T13:57:02.979Z,69.05
2022-11-21T13:59:47.050Z,68.52
2022-11-21T14:02:32.112Z,67.94
2022-11-21T14:05:04.411Z,68.19
2022-11-21T14:07:33.307Z,67.42
2022-11-21T14:10:02.128Z,67.88
2022-11-21T14:12:38.326Z,68.13
2022-11-21T14:15:24.026Z,68.71
2022-11-21T14:17:58.602Z,67.43
2022-11-21T14:20:27.824Z,67.07
2022-11-21T14:23:03.783Z,67.41
2022-11-21T14:25:33.445Z,67.51
2022-11-21T14:28:00.586Z,67.62
2022-11-21T14:30:29.848Z,67.68
2022-11-21T14:32:56.643Z,66.83
2022-11-21T14:35:24.308Z,66.23
2022-11-21T14:37:51.367Z,66.75
2022-11-21T14:40:23.073Z,66.90
2022-11-21T14:42:50.067Z,67.34
2022-11-21T14:45:19.946Z,67.83
2022-11-21T14:47:53.576Z,68.13
2022-11-21T14:50:24.766Z,68.60
2022-11-21T14:52:57.390Z,68.39
2022-11-21T14:55:31.542Z,68.09
2022-11-21T14:58:00.851Z,67.97
2022-11-21T15:00:58.120Z,68.11
2022-11-21T15:03:23.539Z,68.18
2022-11-21T15:06:05.045Z,68.19
2022-11-21T15:09:14.506Z,68.02
2022-11-21T15:11:21.862Z,67.66
2022-11-21T15:14:14.439Z,68.36
2022-11-21T15:16:38.072Z,68.24
2022-11-21T15:19:11.285Z,68.68
2022-11-21T15:21:44.451Z,68.59
2022-11-21T15:24:26.892Z,68.42
2022-11-21T15:26:53.520Z,68.81
2022-11-21T15:29:21.273Z,68.53
2022-11-21T15:32:07.434Z,68.88
2022-11-21T15:34:35.776Z,68.70
2022-11-21T15:37:13.304Z,67.98
2022-11-21T15:39:45.094Z,67.83
2022-11-21T15:42:44.264Z,68.27
2022-11-21T15:45:24.015Z,68.10
2022-11-21T15:47:51.083Z,68.13
2022-11-21T15:50:18.011Z,68.28
2022-11-21T15:52:50.134Z,67.86
2022-11-21T15:55:26.420Z,67.39
2022-11-21T15:57:53.336Z,67.91
2022-11-21T16:00:20.169Z,68.17
2022-11-21T16:02:47.441Z,68.51
2022-11-21T16:05:15.553Z,68.38
2022-11-21T16:07:42.533Z,67.96
2022-11-21T16:10:18.001Z,68.25
2022-11-21T16:12:48.494Z,68.69
2022-11-21T16:15:15.489Z,68.35
2022-11-21T16:17:42.344Z,68.16
2022-11-21T16:20:09.551Z,68.27
2022-11-21T16:22:44.185Z,68.13
2022-11-21T16:25:13.873Z,68.32
2022-11-21T16:27:40.669Z,68.13
2022-11-21T16:30:08.023Z,68.03
2022-11-21T16:32:34.882Z,68.13
2022-11-21T16:35:01.705Z,67.93
2022-11-21T16:37:28.666Z,68.00
2022-11-21T16:39:55.392Z,67.93
2022-11-21T16:42:22.283Z,68.08
2022-11-21T16:44:49.268Z,68.20
2022-11-21T16:47:15.987Z,67.88
2022-11-21T16:49:48.423Z,68.10
2022-11-21T16:52:24.065Z,68.08
2022-11-21T16:54:50.862Z,67.99
2022-11-21T16:57:17.582Z,67.94
2022-11-21T16:59:44.321Z,67.85
2022-11-21T17:02:11.130Z,68.25
2022-11-21T17:04:38.047Z,68.47
2022-11-21T17:07:04.909Z,68.41
2022-11-21T17:09:31.630Z,68.41
2022-11-21T17:11:59.405Z,68.48
2022-11-21T17:14:26.716Z,68.26
2022-11-21T17:16:53.680Z,68.91
2022-11-21T17:19:20.837Z,68.70
2022-11-21T17:21:47.679Z,68.88
2022-11-21T17:24:14.526Z,69.43
2022-11-21T17:26:41.263Z,69.27
2022-11-21T17:29:07.967Z,69.14
2022-11-21T17:31:34.913Z,69.11
2022-11-21T17:34:01.967Z,69.20
2022-11-21T17:36:30.136Z,69.59
2022-11-21T17:38:57.612Z,69.41
2022-11-21T17:41:26.172Z,69.63
2022-11-21T17:43:58.391Z,69.91
2022-11-21T17:46:26.416Z,70.49
2022-11-21T17:48:57.508Z,69.99
2022-11-21T17:51:34.510Z,70.50
2022-11-21T17:54:01.957Z,70.49
2022-11-21T17:56:31.662Z,70.15
2022-11-21T17:58:58.566Z,69.83
2022-11-21T18:01:25.683Z,69.97
2022-11-21T18:03:59.864Z,70.04
2022-11-21T18:06:28.647Z,70.21
2022-11-21T18:08:57.168Z,70.11
2022-11-21T18:11:24.568Z,70.16
2022-11-21T18:13:51.556Z,70.06
2022-11-21T18:16:20.941Z,70.12
2022-11-21T18:18:49.571Z,70.51
2022-11-21T18:21:18.799Z,70.73
2022-11-21T18:23:47.169Z,70.68
2022-11-21T18:26:23.177Z,70.62
2022-11-21T18:29:13.454Z,70.51
2022-11-21T18:31:44.142Z,70.28
2022-11-21T18:34:12.714Z,70.12
2022-11-21T18:36:39.577Z,69.87
2022-11-21T18:39:14.646Z,70.06
2022-11-21T18:41:42.380Z,69.65
2022-11-21T18:44:10.159Z,69.56
2022-11-21T18:46:38.114Z,69.43
2022-11-21T18:49:06.840Z,69.54
2022-11-21T18:51:34.749Z,69.28
2022-11-21T18:54:05.439Z,69.84
2022-11-21T18:56:32.447Z,69.99
2022-11-21T18:58:59.549Z,70.31
2022-11-21T19:01:28.136Z,70.27
2022-11-21T19:03:55.763Z,70.94
2022-11-21T19:06:23.785Z,70.21
2022-11-21T19:08:53.271Z,70.65
2022-11-21T19:11:21.281Z,70.98
2022-11-21T19:13:49.009Z,70.60
2022-11-21T19:16:18.497Z,70.87
2022-11-21T19:18:55.314Z,70.65
2022-11-21T19:21:36.700Z,70.66
2022-11-21T19:24:03.568Z,70.40
2022-11-21T19:26:31.644Z,70.19
2022-11-21T19:28:58.990Z,70.23
2022-11-21T19:31:26.129Z,70.49
2022-11-21T19:33:53.497Z,70.80
2022-11-21T19:36:22.113Z,70.75
2022-11-21T19:38:51.451Z,70.32
2022-11-21T19:41:20.090Z,69.81
2022-11-21T19:43:51.467Z,69.91
2022-11-21T19:46:21.320Z,69.95
2022-11-21T19:48:49.639Z,69.57
2022-11-21T19:51:18.001Z,70.11
2022-11-21T19:53:46.423Z,69.69
2022-11-21T19:56:18.274Z,69.58
2022-11-21T19:58:45.600Z,69.69
2022-11-21T20:01:20.463Z,70.02
2022-11-21T20:03:49.669Z,69.96
2022-11-21T20:06:24.451Z,70.09
2022-11-21T20:08:58.843Z,70.05
2022-11-21T20:11:26.642Z,70.33
2022-11-21T20:13:53.766Z,71.07
2022-11-21T20:16:32.456Z,70.59
2022-11-21T20:19:02.333Z,69.93
2022-11-21T20:21:29.781Z,69.53
2022-11-21T20:23:56.995Z,68.65
2022-11-21T20:26:24.883Z,69.13
2022-11-21T20:28:52.076Z,69.60
2022-11-21T20:31:24.916Z,69.99
2022-11-21T20:33:53.660Z,70.18
2022-11-21T20:36:22.625Z,69.57
2022-11-21T20:38:51.138Z,69.44
2022-11-21T20:41:19.241Z,69.50
2022-11-21T20:44:26.736Z,69.44
2022-11-21T20:46:34.463Z,69.20
2022-11-21T20:49:02.268Z,69.08
2022-11-21T20:54:16.300Z,68.97
2022-11-21T20:56:44.499Z,69.06
2022-11-21T20:59:11.437Z,69.29
2022-11-21T21:01:38.476Z,68.08
2022-11-21T21:04:05.516Z,68.47
2022-11-21T21:06:32.494Z,68.52
2022-11-21T21:09:00.477Z,68.03
2022-11-21T21:14:14.561Z,68.50
2022-11-21T21:16:41.442Z,68.27
2022-11-21T21:19:08.232Z,67.86
2022-11-21T21:21:35.008Z,67.78
2022-11-21T21:24:06.776Z,68.27
2022-11-21T21:26:41.744Z,68.39
2022-11-21T21:29:11.086Z,68.08
2022-11-21T21:31:37.846Z,68.36
2022-11-21T21:34:04.814Z,69.37
2022-11-21T21:36:32.286Z,68.60
2022-11-21T21:39:00.855Z,69.00
2022-11-21T21:41:30.033Z,67.65
2022-11-21T21:43:58.007Z,68.95
2022-11-21T21:46:27.339Z,68.34
2022-11-21T21:48:56.254Z,68.82
2022-11-21T21:51:25.077Z,69.17
2022-11-21T21:53:52.901Z,68.87
2022-11-21T21:56:20.851Z,69.02
2022-11-21T21:58:48.683Z,69.27
2022-11-21T22:01:20.928Z,68.78
2022-11-21T22:03:48.192Z,68.10
2022-11-21T22:06:18.935Z,68.71
2022-11-21T22:08:47.252Z,68.34
2022-11-21T22:11:16.208Z,68.62
2022-11-21T22:13:44.444Z,68.82
2022-11-21T22:16:12.383Z,68.91
2022-11-21T22:18:39.708Z,68.67
2022-11-21T22:21:24.672Z,68.55
2022-11-21T22:24:23.085Z,68.35
2022-11-21T22:26:38.113Z,68.17
2022-11-21T22:29:04.881Z,68.55
2022-11-21T22:31:31.631Z,68.37
2022-11-21T22:33:58.846Z,69.06
2022-11-21T22:36:25.840Z,68.66
2022-11-21T22:38:53.943Z,68.77
2022-11-21T22:41:22.493Z,68.59
2022-11-21T22:43:51.053Z,68.54
2022-11-21T22:46:18.155Z,68.94
2022-11-21T22:48:44.889Z,68.88
2022-11-21T22:51:19.344Z,69.01
2022-11-21T22:53:47.033Z,69.10
2022-11-21T22:56:16.806Z,69.11
2022-11-21T22:58:45.784Z,69.21
2022-11-21T23:01:14.803Z,69.15
2022-11-21T23:03:42.807Z,69.02
2022-11-21T23:06:18.747Z,69.02
2022-11-21T23:08:45.816Z,68.79
2022-11-21T23:11:31.628Z,69.19
2022-11-21T23:14:00.921Z,69.27
2022-11-21T23:16:28.754Z,70.11
2022-11-21T23:18:56.815Z,69.78
2022-11-21T23:21:23.850Z,69.83
2022-11-21T23:23:50.590Z,69.09
2022-11-21T23:26:17.261Z,69.24
2022-11-21T23:28:43.909Z,69.48
2022-11-21T23:31:10.761Z,70.02
2022-11-21T23:33:37.612Z,69.77
2022-11-21T23:36:04.695Z,69.74
2022-11-21T23:38:31.507Z,69.16
2022-11-21T23:40:58.251Z,69.22
2022-11-21T23:43:24.973Z,69.52
2022-11-21T23:45:52.552Z,69.26
2022-11-21T23:48:19.873Z,70.10
2022-11-21T23:50:47.455Z,69.82
2022-11-21T23:53:14.367Z,69.09
2022-11-21T23:55:44.494Z,69.63
2022-11-21T23:58:11.809Z,69.33
